createdAt,value
2023-02-05T00:01:09.708Z,9.68
2023-02-05T00:03:36.921Z,10.23
2023-02-05T00:06:03.384Z,10.71
2023-02-05T00:08:31.082Z,10.28
2023-02-05T00:10:57.510Z,10.40
2023-02-05T00:13:23.833Z,10.71
2023-02-05T00:15:50.168Z,10.70
2023-02-05T00:18:16.506Z,10.10
2023-02-05T00:20:42.877Z,10.49
2023-02-05T00:23:09.224Z,10.74
2023-02-05T00:25:35.781Z,10.84
2023-02-05T00:28:02.421Z,10.74
2023-02-05T00:30:28.925Z,10.72
2023-02-05T00:32:55.312Z,10.83
2023-02-05T00:35:21.659Z,10.69
2023-02-05T00:37:47.986Z,10.54
2023-02-05T00:40:14.388Z,10.85
2023-02-05T00:42:40.740Z,10.91
2023-02-05T00:45:07.769Z,10.60
2023-02-05T00:47:34.157Z,10.43
2023-02-05T00:50:00.545Z,10.74
2023-02-05T00:52:26.963Z,10.25
2023-02-05T00:54:53.508Z,10.68
2023-02-05T00:57:24.540Z,10.54
2023-02-05T00:59:52.272Z,10.59
2023-02-05T01:02:23.564Z,10.53
2023-02-05T01:04:51.397Z,10.69
2023-02-05T01:07:18.949Z,10.49
2023-02-05T01:09:45.389Z,10.40
2023-02-05T01:12:14.082Z,10.35
2023-02-05T01:14:41.528Z,9.98
2023-02-05T01:17:07.940Z,10.41
2023-02-05T01:19:35.039Z,10.20
2023-02-05T01:22:01.436Z,10.28
2023-02-05T01:24:28.057Z,10.27
2023-02-05T01:26:56.051Z,10.35
2023-02-05T01:29:23.196Z,10.18
2023-02-05T01:31:49.560Z,10.30
2023-02-05T01:34:16.074Z,10.41
2023-02-05T01:36:42.416Z,10.13
2023-02-05T01:39:09.008Z,9.89
2023-02-05T01:41:35.643Z,9.99
2023-02-05T01:44:12.537Z,10.71
2023-02-05T01:46:43.654Z,10.51
2023-02-05T01:49:22.479Z,10.34
2023-02-05T01:51:50.162Z,10.62
2023-02-05T01:54:20.052Z,10.77
2023-02-05T01:56:52.760Z,10.68
2023-02-05T01:59:24.288Z,10.65
2023-02-05T02:01:50.691Z,10.23
2023-02-05T02:04:30.292Z,10.77
2023-02-05T02:06:56.634Z,10.74
2023-02-05T02:09:23.166Z,10.65
2023-02-05T02:11:49.602Z,10.05
2023-02-05T02:14:16.457Z,10.69
2023-02-05T02:16:42.962Z,10.80
2023-02-05T02:19:20.081Z,10.82
2023-02-05T02:22:10.556Z,11.05
2023-02-05T02:24:57.855Z,11.06
2023-02-05T02:27:40.920Z,11.06
2023-02-05T02:30:24.820Z,11.01
2023-02-05T02:33:18.652Z,11.03
2023-02-05T02:36:43.209Z,11.06
2023-02-05T02:39:17.987Z,10.89
2023-02-05T02:41:48.931Z,11.09
2023-02-05T02:44:25.753Z,11.08
2023-02-05T02:46:55.374Z,10.71
2023-02-05T02:49:28.768Z,10.83
2023-02-05T02:51:57.935Z,10.97
2023-02-05T02:54:26.371Z,11.22
2023-02-05T02:56:54.095Z,11.00
2023-02-05T02:59:24.768Z,11.22
2023-02-05T03:02:04.593Z,10.86
2023-02-05T03:04:35.046Z,10.92
2023-02-05T03:07:27.525Z,11.20
2023-02-05T03:10:02.494Z,10.83
2023-02-05T03:12:29.075Z,10.93
2023-02-05T03:14:55.758Z,10.91
2023-02-05T03:17:24.475Z,10.57
2023-02-05T03:20:00.986Z,10.95
2023-02-05T03:22:27.421Z,10.78
2023-02-05T03:24:53.943Z,10.59
2023-02-05T03:27:22.459Z,10.46
2023-02-05T03:29:50.095Z,11.10
2023-02-05T03:32:35.055Z,11.35
2023-02-05T03:35:19.222Z,10.94
2023-02-05T03:38:03.048Z,11.06
2023-02-05T03:40:45.952Z,11.12
2023-02-05T03:43:23.306Z,11.21
2023-02-05T03:46:10.813Z,11.06
2023-02-05T03:49:01.754Z,10.98
2023-02-05T03:51:44.266Z,10.70
2023-02-05T03:54:24.788Z,11.09
2023-02-05T03:57:05.735Z,10.87
2023-02-05T03:59:33.776Z,10.95
2023-02-05T04:02:00.801Z,11.20
2023-02-05T04:04:27.681Z,10.97
2023-02-05T04:06:54.160Z,10.98
2023-02-05T04:09:20.564Z,11.03
2023-02-05T04:11:46.983Z,11.03
2023-02-05T04:14:13.507Z,10.84
2023-02-05T04:16:39.942Z,10.81
2023-02-05T04:19:06.316Z,10.69
2023-02-05T04:21:32.718Z,10.71
2023-02-05T04:23:59.049Z,10.89
2023-02-05T04:26:25.454Z,10.97
2023-02-05T04:28:51.770Z,10.90
2023-02-05T04:31:18.200Z,9.99
2023-02-05T04:33:44.644Z,10.31
2023-02-05T04:36:11.307Z,10.72
2023-02-05T04:38:37.729Z,10.51
2023-02-05T04:41:04.836Z,10.89
2023-02-05T04:43:31.188Z,10.21
2023-02-05T04:45:57.595Z,10.77
2023-02-05T04:48:24.028Z,10.65
2023-02-05T04:50:50.394Z,10.65
2023-02-05T04:53:16.798Z,10.40
2023-02-05T04:55:43.143Z,10.84
2023-02-05T04:58:09.514Z,10.64
2023-02-05T05:00:36.129Z,10.54
2023-02-05T05:03:02.631Z,10.73
2023-02-05T05:05:28.983Z,10.65
2023-02-05T05:07:55.396Z,10.66
2023-02-05T05:10:21.748Z,10.45
2023-02-05T05:12:48.060Z,10.76
2023-02-05T05:15:14.390Z,10.57
2023-02-05T05:17:40.835Z,10.43
2023-02-05T05:20:07.454Z,10.30
2023-02-05T05:22:33.843Z,9.69
2023-02-05T05:25:00.258Z,10.51
2023-02-05T05:27:26.676Z,10.14
2023-02-05T05:29:53.026Z,10.53
2023-02-05T05:32:19.527Z,10.38
2023-02-05T05:34:45.938Z,10.33
2023-02-05T05:37:12.388Z,10.27
2023-02-05T05:39:57.360Z,10.50
2023-02-05T05:42:42.141Z,10.66
2023-02-05T05:45:08.757Z,10.51
2023-02-05T05:47:35.089Z,10.20
2023-02-05T05:50:01.443Z,10.62
2023-02-05T05:52:27.796Z,10.34
2023-02-05T05:54:54.231Z,10.33
2023-02-05T05:57:21.115Z,10.50
2023-02-05T05:59:47.509Z,10.52
2023-02-05T06:02:13.843Z,10.55
2023-02-05T06:04:40.371Z,10.40
2023-02-05T06:07:06.777Z,10.38
2023-02-05T06:09:33.131Z,10.30
2023-02-05T06:11:59.587Z,9.73
2023-02-05T06:14:25.970Z,10.24
2023-02-05T06:16:55.054Z,9.92
2023-02-05T06:19:22.624Z,10.33
2023-02-05T06:21:49.029Z,9.96
2023-02-05T06:24:15.470Z,10.16
2023-02-05T06:26:42.883Z,9.65
2023-02-05T06:29:09.217Z,10.09
2023-02-05T06:31:35.617Z,10.30
2023-02-05T06:34:02.020Z,10.17
2023-02-05T06:36:28.411Z,10.12
2023-02-05T06:38:54.840Z,10.36
2023-02-05T06:41:21.249Z,10.54
2023-02-05T06:43:47.691Z,10.48
2023-02-05T06:46:14.068Z,10.22
2023-02-05T06:48:40.520Z,10.38
2023-02-05T06:51:06.876Z,10.19
2023-02-05T06:53:33.238Z,10.14
2023-02-05T06:55:59.612Z,10.28
2023-02-05T06:58:26.088Z,10.13
2023-02-05T07:00:52.400Z,9.63
2023-02-05T07:03:18.818Z,10.04
2023-02-05T07:05:45.139Z,10.15
2023-02-05T07:08:11.520Z,9.74
2023-02-05T07:10:38.344Z,9.76
2023-02-05T07:13:05.992Z,9.60
2023-02-05T07:15:32.969Z,10.11
2023-02-05T07:17:59.413Z,9.61
2023-02-05T07:20:25.735Z,9.83
2023-02-05T07:22:52.062Z,9.72
2023-02-05T07:25:18.458Z,10.04
2023-02-05T07:27:44.886Z,10.20
2023-02-05T07:30:12.178Z,10.18
2023-02-05T07:32:38.540Z,9.94
2023-02-05T07:35:05.188Z,10.16
2023-02-05T07:37:31.537Z,9.42
2023-02-05T07:39:57.979Z,10.27
2023-02-05T07:42:24.397Z,10.03
2023-02-05T07:44:50.725Z,9.66
2023-02-05T07:47:17.094Z,9.64
2023-02-05T07:49:43.450Z,9.66
2023-02-05T07:52:09.812Z,9.54
2023-02-05T07:54:36.144Z,9.13
2023-02-05T07:57:06.953Z,9.89
2023-02-05T07:59:33.494Z,9.79
2023-02-05T08:01:59.813Z,9.25
2023-02-05T08:04:26.285Z,9.70
2023-02-05T08:06:52.682Z,9.58
2023-02-05T08:09:19.093Z,9.66
2023-02-05T08:11:45.452Z,8.98
2023-02-05T08:14:11.979Z,9.21
2023-02-05T08:16:38.312Z,9.21
2023-02-05T08:19:04.705Z,9.15
2023-02-05T08:21:31.004Z,9.21
2023-02-05T08:23:58.471Z,8.82
2023-02-05T08:26:24.827Z,9.08
2023-02-05T08:28:51.465Z,8.34
2023-02-05T08:31:19.331Z,9.28
2023-02-05T08:33:47.697Z,8.48
2023-02-05T08:36:14.360Z,8.69
2023-02-05T08:38:40.813Z,8.86
2023-02-05T08:41:12.415Z,8.95
2023-02-05T08:43:47.292Z,9.25
2023-02-05T08:46:17.510Z,9.10
2023-02-05T08:48:43.943Z,9.12
2023-02-05T08:51:11.897Z,8.53
2023-02-05T08:53:39.078Z,8.66
2023-02-05T08:56:06.340Z,9.46
2023-02-05T08:58:33.083Z,9.63
2023-02-05T09:01:04.639Z,9.26
2023-02-05T09:03:31.745Z,9.76
2023-02-05T09:05:59.786Z,8.70
2023-02-05T09:08:28.035Z,9.48
2023-02-05T09:10:55.335Z,9.27
2023-02-05T09:13:21.730Z,9.40
2023-02-05T09:15:48.748Z,9.19
2023-02-05T09:18:15.471Z,9.32
2023-02-05T09:20:43.951Z,9.26
2023-02-05T09:23:12.114Z,9.62
2023-02-05T09:25:40.411Z,9.52
2023-02-05T09:28:09.409Z,9.40
2023-02-05T09:30:37.647Z,8.88
2023-02-05T09:33:04.102Z,9.03
2023-02-05T09:35:34.809Z,9.14
2023-02-05T09:38:03.427Z,9.18
2023-02-05T09:40:35.818Z,9.42
2023-02-05T09:43:23.912Z,9.05
2023-02-05T09:45:50.184Z,9.38
2023-02-05T09:48:40.936Z,9.53
2023-02-05T09:51:11.604Z,9.29
2023-02-05T09:53:44.159Z,8.91
2023-02-05T09:56:13.683Z,8.29
2023-02-05T09:58:45.348Z,8.88
2023-02-05T10:01:29.174Z,9.56
2023-02-05T10:04:06.153Z,8.90
2023-02-05T10:06:42.686Z,9.17
2023-02-05T10:09:49.425Z,9.31
2023-02-05T10:12:31.239Z,8.92
2023-02-05T10:15:13.459Z,9.39
2023-02-05T10:17:58.413Z,9.40
2023-02-05T10:20:46.554Z,9.34
2023-02-05T10:23:27.088Z,9.51
2023-02-05T10:26:19.411Z,9.52
2023-02-05T10:29:10.289Z,9.37
2023-02-05T10:31:42.688Z,9.66
2023-02-05T10:34:37.925Z,9.22
2023-02-05T10:37:11.971Z,9.59
2023-02-05T10:39:38.604Z,9.21
2023-02-05T10:42:07.058Z,9.60
2023-02-05T10:44:46.293Z,9.56
2023-02-05T10:47:25.000Z,9.22
2023-02-05T10:50:14.169Z,9.59
2023-02-05T10:52:40.556Z,9.67
2023-02-05T10:55:13.786Z,9.62
2023-02-05T10:57:40.641Z,9.48
2023-02-05T11:00:22.373Z,9.72
2023-02-05T11:02:52.079Z,9.53
2023-02-05T11:05:29.641Z,9.93
2023-02-05T11:07:56.237Z,9.43
2023-02-05T11:10:24.208Z,9.76
2023-02-05T11:12:56.748Z,9.80
2023-02-05T11:15:29.073Z,9.40
2023-02-05T11:18:01.599Z,9.61
2023-02-05T11:20:31.437Z,9.10
2023-02-05T11:23:21.205Z,9.85
2023-02-05T11:25:59.870Z,9.78
2023-02-05T11:28:31.505Z,9.59
2023-02-05T11:31:18.210Z,9.45
2023-02-05T11:33:44.606Z,9.59
2023-02-05T11:36:38.517Z,10.06
2023-02-05T11:39:06.801Z,9.70
2023-02-05T11:41:54.972Z,9.85
2023-02-05T11:44:26.436Z,10.04
2023-02-05T11:46:57.031Z,9.82
2023-02-05T11:49:32.764Z,9.71
2023-02-05T11:51:59.788Z,9.68
2023-02-05T11:54:32.955Z,10.06
2023-02-05T11:57:06.541Z,9.74
2023-02-05T11:59:35.222Z,9.88
2023-02-05T12:02:28.292Z,10.10
2023-02-05T12:05:09.522Z,9.93
2023-02-05T12:07:41.777Z,10.25
2023-02-05T12:10:34.752Z,9.97
2023-02-05T12:13:22.728Z,10.20
2023-02-05T12:16:12.664Z,9.86
2023-02-05T12:19:07.706Z,10.43
2023-02-05T12:21:45.604Z,10.14
2023-02-05T12:24:22.003Z,10.47
2023-02-05T12:26:51.389Z,10.06
2023-02-05T12:29:55.500Z,10.17
2023-02-05T12:32:48.678Z,10.01
2023-02-05T12:35:33.035Z,9.77
2023-02-05T12:38:21.153Z,10.20
2023-02-05T12:40:59.707Z,10.26
2023-02-05T12:43:41.971Z,10.28
2023-02-05T12:46:47.785Z,10.54
2023-02-05T12:49:46.340Z,10.56
2023-02-05T12:52:31.035Z,10.15
2023-02-05T12:55:27.356Z,10.37
2023-02-05T12:57:58.946Z,10.26
2023-02-05T13:00:37.828Z,10.36
2023-02-05T13:03:20.907Z,10.31
2023-02-05T13:05:55.133Z,9.93
2023-02-05T13:08:21.400Z,10.55
2023-02-05T13:10:59.801Z,10.30
2023-02-05T13:13:31.935Z,10.23
2023-02-05T13:16:04.837Z,10.42
2023-02-05T13:18:35.859Z,10.53
2023-02-05T13:21:28.539Z,10.47
2023-02-05T13:24:23.041Z,10.33
2023-02-05T13:27:08.840Z,10.00
2023-02-05T13:29:46.421Z,10.44
2023-02-05T13:32:16.542Z,10.80
2023-02-05T13:34:43.433Z,10.23
2023-02-05T13:37:43.713Z,10.81
2023-02-05T13:40:22.008Z,11.01
2023-02-05T13:43:05.296Z,10.85
2023-02-05T13:46:07.162Z,10.88
2023-02-05T13:48:59.931Z,9.91
2023-02-05T13:51:50.456Z,10.76
2023-02-05T13:54:48.749Z,10.57
2023-02-05T13:57:41.416Z,10.80
2023-02-05T14:00:14.486Z,10.78
2023-02-05T14:02:44.179Z,10.85
2023-02-05T14:05:13.537Z,11.03
2023-02-05T14:07:51.348Z,11.05
2023-02-05T14:10:39.164Z,10.97
2023-02-05T14:13:25.732Z,11.16
2023-02-05T14:15:57.424Z,10.76
2023-02-05T14:18:45.085Z,10.85
2023-02-05T14:21:29.695Z,10.26
2023-02-05T14:23:57.678Z,10.42
2023-02-05T14:26:53.193Z,9.94
2023-02-05T14:29:45.611Z,10.08
2023-02-05T14:32:13.815Z,9.83
2023-02-05T14:34:40.143Z,10.21
2023-02-05T14:37:25.232Z,10.35
2023-02-05T14:39:51.952Z,10.54
2023-02-05T14:42:22.116Z,10.43
2023-02-05T14:45:00.213Z,10.73
2023-02-05T14:47:31.279Z,10.61
2023-02-05T14:50:17.461Z,11.08
2023-02-05T14:52:54.168Z,10.80
2023-02-05T14:55:43.683Z,10.90
2023-02-05T14:58:27.369Z,10.59
2023-02-05T15:01:29.651Z,10.81
2023-02-05T15:03:59.134Z,10.01
2023-02-05T15:06:28.397Z,10.53
2023-02-05T15:09:17.766Z,10.72
2023-02-05T15:12:20.524Z,10.77
2023-02-05T15:14:54.551Z,11.08
2023-02-05T15:17:29.968Z,10.54
2023-02-05T15:20:20.061Z,10.58
2023-02-05T15:22:56.266Z,10.21
2023-02-05T15:25:32.822Z,10.39
2023-02-05T15:28:04.064Z,10.42
2023-02-05T15:30:43.129Z,10.58
2023-02-05T15:33:20.202Z,10.17
2023-02-05T15:35:49.800Z,10.71
2023-02-05T15:38:28.124Z,10.72
2023-02-05T15:40:54.760Z,10.64
2023-02-05T15:43:26.357Z,10.67
2023-02-05T15:46:01.035Z,10.99
2023-02-05T15:48:30.742Z,10.62
2023-02-05T15:51:17.456Z,10.78
2023-02-05T15:53:50.008Z,10.93
2023-02-05T15:56:20.173Z,11.00
2023-02-05T15:59:10.196Z,10.91
2023-02-05T16:01:53.292Z,10.91
2023-02-05T16:04:22.618Z,10.87
2023-02-05T16:06:49.247Z,10.67
2023-02-05T16:09:20.878Z,10.63
2023-02-05T16:11:48.349Z,10.67
2023-02-05T16:14:18.041Z,10.11
2023-02-05T16:17:23.342Z,10.89
2023-02-05T16:20:17.206Z,10.87
2023-02-05T16:22:49.252Z,10.46
2023-02-05T16:25:21.734Z,10.68
2023-02-05T16:27:51.350Z,10.49
2023-02-05T16:30:30.947Z,10.40
2023-02-05T16:32:59.657Z,10.02
2023-02-05T16:35:33.917Z,9.81
2023-02-05T16:38:01.229Z,10.59
2023-02-05T16:40:40.680Z,10.56
2023-02-05T16:43:29.200Z,10.75
2023-02-05T16:46:07.666Z,10.66
2023-02-05T16:48:37.476Z,10.16
2023-02-05T16:51:05.337Z,9.82
2023-02-05T16:53:37.769Z,10.30
2023-02-05T16:56:20.511Z,10.49
2023-02-05T16:58:51.380Z,10.24
2023-02-05T17:01:27.783Z,10.66
2023-02-05T17:03:55.415Z,10.48
2023-02-05T17:06:23.797Z,10.51
2023-02-05T17:08:53.156Z,10.43
2023-02-05T17:11:33.485Z,10.56
2023-02-05T17:14:28.549Z,10.61
2023-02-05T17:17:03.742Z,10.20
2023-02-05T17:19:32.355Z,10.53
2023-02-05T17:22:13.962Z,10.50
2023-02-05T17:24:49.083Z,10.30
2023-02-05T17:27:30.032Z,10.46
2023-02-05T17:29:57.849Z,10.15
2023-02-05T17:32:25.787Z,10.33
2023-02-05T17:34:52.627Z,10.27
2023-02-05T17:37:19.040Z,10.34
2023-02-05T17:39:45.420Z,9.64
2023-02-05T17:42:20.941Z,10.31
2023-02-05T17:44:47.423Z,10.15
2023-02-05T17:47:13.893Z,9.55
2023-02-05T17:49:40.496Z,9.79
2023-02-05T17:52:06.835Z,10.04
2023-02-05T17:54:33.154Z,9.40
2023-02-05T17:57:10.965Z,9.93
2023-02-05T17:59:37.337Z,9.79
2023-02-05T18:02:04.984Z,9.82
2023-02-05T18:04:31.495Z,9.88
2023-02-05T18:06:58.030Z,9.82
2023-02-05T18:09:24.394Z,9.87
2023-02-05T18:11:50.767Z,9.95
2023-02-05T18:14:17.347Z,10.02
2023-02-05T18:16:43.750Z,9.84
2023-02-05T18:19:10.125Z,9.84
2023-02-05T18:21:36.558Z,9.72
2023-02-05T18:24:04.267Z,9.98
2023-02-05T18:26:31.194Z,9.57
2023-02-05T18:28:57.800Z,9.90
2023-02-05T18:31:24.397Z,9.24
2023-02-05T18:33:52.665Z,9.66
2023-02-05T18:36:19.204Z,9.49
2023-02-05T18:38:45.762Z,9.73
2023-02-05T18:41:21.548Z,9.76
2023-02-05T18:43:47.929Z,9.19
2023-02-05T18:46:17.526Z,9.90
2023-02-05T18:48:49.288Z,9.64
2023-02-05T18:51:18.436Z,9.78
2023-02-05T18:53:47.357Z,9.55
2023-02-05T18:56:16.987Z,9.71
2023-02-05T18:58:44.638Z,8.95
2023-02-05T19:01:13.876Z,9.91
2023-02-05T19:03:41.305Z,9.87
2023-02-05T19:06:13.678Z,9.62
2023-02-05T19:08:40.684Z,9.96
2023-02-05T19:11:15.937Z,10.05
2023-02-05T19:13:42.658Z,9.87
2023-02-05T19:16:15.064Z,9.75
2023-02-05T19:18:44.381Z,9.96
2023-02-05T19:21:17.005Z,9.86
2023-02-05T19:23:44.394Z,9.56
2023-02-05T19:26:16.264Z,9.97
2023-02-05T19:28:44.656Z,9.93
2023-02-05T19:31:14.801Z,9.76
2023-02-05T19:33:41.808Z,9.92
2023-02-05T19:36:10.685Z,9.09
2023-02-05T19:38:39.434Z,9.16
2023-02-05T19:41:07.134Z,9.17
2023-02-05T19:43:33.534Z,9.50
2023-02-05T19:46:08.226Z,9.12
2023-02-05T19:48:34.883Z,9.30
2023-02-05T19:51:10.042Z,9.56
2023-02-05T19:53:38.164Z,9.33
2023-02-05T19:56:07.525Z,9.55
2023-02-05T19:58:39.347Z,9.54
2023-02-05T20:01:13.331Z,9.79
2023-02-05T20:03:40.239Z,9.23
2023-02-05T20:06:07.916Z,9.32
2023-02-05T20:08:34.604Z,9.25
2023-02-05T20:11:02.161Z,9.20
2023-02-05T20:13:30.273Z,9.00
2023-02-05T20:16:00.779Z,8.69
2023-02-05T20:18:28.640Z,8.51
2023-02-05T20:20:55.030Z,9.06
2023-02-05T20:23:21.392Z,9.08
2023-02-05T20:25:58.585Z,9.09
2023-02-05T20:28:26.180Z,9.09
2023-02-05T20:31:11.681Z,9.02
2023-02-05T20:33:39.097Z,8.86
2023-02-05T20:36:11.974Z,8.63
2023-02-05T20:38:39.245Z,8.68
2023-02-05T20:41:17.049Z,8.63
2023-02-05T20:43:44.464Z,8.64
2023-02-05T20:46:11.036Z,8.38
2023-02-05T20:48:38.258Z,8.52
2023-02-05T20:51:10.662Z,8.63
2023-02-05T20:53:37.521Z,8.31
2023-02-05T20:56:13.251Z,8.55
2023-02-05T20:58:39.955Z,8.71
2023-02-05T21:01:07.735Z,8.68
2023-02-05T21:03:34.468Z,8.55
2023-02-05T21:06:01.337Z,8.67
2023-02-05T21:08:27.772Z,8.36
2023-02-05T21:10:54.121Z,8.41
2023-02-05T21:13:20.519Z,8.16
2023-02-05T21:15:59.023Z,8.32
2023-02-05T21:18:26.673Z,8.11
2023-02-05T21:20:53.295Z,8.22
2023-02-05T21:23:21.206Z,7.65
2023-02-05T21:25:47.884Z,8.19
2023-02-05T21:28:14.536Z,8.06
2023-02-05T21:30:42.934Z,8.04
2023-02-05T21:33:09.263Z,8.12
2023-02-05T21:35:39.057Z,8.22
2023-02-05T21:38:05.569Z,7.90
2023-02-05T21:40:32.009Z,8.06
2023-02-05T21:42:58.392Z,7.90
2023-02-05T21:45:24.750Z,7.83
2023-02-05T21:47:51.125Z,7.94
2023-02-05T21:50:17.624Z,7.75
2023-02-05T21:52:43.948Z,7.86
2023-02-05T21:55:10.303Z,7.75
2023-02-05T21:57:36.614Z,7.92
2023-02-05T22:00:04.363Z,7.70
2023-02-05T22:02:30.672Z,7.64
2023-02-05T22:04:57.041Z,7.80
2023-02-05T22:07:23.357Z,7.87
2023-02-05T22:09:49.708Z,7.93
2023-02-05T22:12:16.097Z,7.84
2023-02-05T22:14:42.413Z,7.72
2023-02-05T22:17:08.749Z,7.56
2023-02-05T22:19:35.886Z,7.43
2023-02-05T22:22:02.220Z,7.66
2023-02-05T22:24:28.589Z,7.64
2023-02-05T22:26:55.143Z,7.28
2023-02-05T22:29:21.582Z,7.52
2023-02-05T22:31:52.503Z,7.50
2023-02-05T22:34:19.014Z,7.60
2023-02-05T22:36:45.345Z,6.78
2023-02-05T22:39:12.272Z,7.33
2023-02-05T22:41:41.301Z,7.60
2023-02-05T22:44:09.387Z,7.35
2023-02-05T22:46:39.989Z,7.32
2023-02-05T22:49:06.813Z,7.46
2023-02-05T22:51:39.239Z,7.47
2023-02-05T22:54:07.525Z,7.19
2023-02-05T22:56:34.261Z,7.21
2023-02-05T22:59:03.068Z,7.22
2023-02-05T23:01:32.816Z,6.57
2023-02-05T23:03:59.562Z,7.30
2023-02-05T23:06:28.726Z,7.31
2023-02-05T23:09:00.993Z,7.27
2023-02-05T23:11:30.628Z,7.25
2023-02-05T23:13:58.697Z,7.27
2023-02-05T23:16:27.407Z,7.04
2023-02-05T23:18:57.924Z,7.17
2023-02-05T23:21:26.364Z,7.08
2023-02-05T23:23:53.068Z,6.95
2023-02-05T23:26:28.741Z,7.13
2023-02-05T23:28:55.655Z,7.14
2023-02-05T23:31:23.271Z,6.51
2023-02-05T23:33:50.789Z,7.07
2023-02-05T23:36:17.268Z,6.78
2023-02-05T23:38:43.975Z,6.77
2023-02-05T23:41:10.534Z,6.74
2023-02-05T23:43:37.146Z,6.94
2023-02-05T23:46:05.453Z,6.83
2023-02-05T23:48:32.261Z,7.17
2023-02-05T23:50:58.607Z,7.13
2023-02-05T23:53:25.619Z,7.12
2023-02-05T23:55:53.755Z,7.06
2023-02-05T23:58:23.758Z,6.57
